createdAt,value
2022-08-20T00:02:24.782Z,99835.94
2022-08-20T00:04:58.346Z,99834.41
2022-08-20T00:07:31.824Z,99841.97
2022-08-20T00:10:08.485Z,99828.00
2022-08-20T00:12:46.196Z,99822.69
2022-08-20T00:15:22.201Z,99830.41
2022-08-20T00:17:56.361Z,99836.06
2022-08-20T00:20:35.102Z,99844.63
2022-08-20T00:23:10.664Z,99843.31
2022-08-20T00:25:46.378Z,99844.06
2022-08-20T00:28:20.099Z,99839.78
2022-08-20T00:30:53.802Z,99834.03
2022-08-20T00:33:27.566Z,99834.22
2022-08-20T00:36:06.690Z,99837.31
2022-08-20T00:38:42.611Z,99833.06
2022-08-20T00:41:21.760Z,99834.41
2022-08-20T00:44:08.908Z,99826.59
2022-08-20T00:46:43.462Z,99826.47
2022-08-20T00:49:19.847Z,99815.03
2022-08-20T00:51:59.374Z,99808.03
2022-08-20T00:54:40.757Z,99792.19
2022-08-20T00:57:26.678Z,99779.75
2022-08-20T01:00:04.750Z,99782.16
2022-08-20T01:02:38.425Z,99793.44
2022-08-20T01:05:12.769Z,99826.63
2022-08-20T01:07:48.565Z,99863.28
2022-08-20T01:10:28.687Z,99849.19
2022-08-20T01:13:10.138Z,99849.91
2022-08-20T01:15:49.506Z,99849.44
2022-08-20T01:18:27.028Z,99844.16
2022-08-20T01:21:03.897Z,99836.66
2022-08-20T01:23:44.746Z,99831.59
2022-08-20T01:26:24.461Z,99824.25
2022-08-20T01:29:02.313Z,99823.19
2022-08-20T01:31:39.088Z,99814.00
2022-08-20T01:34:15.436Z,99786.69
2022-08-20T01:36:53.097Z,99767.41
2022-08-20T01:39:28.982Z,99771.31
2022-08-20T01:42:13.078Z,99767.75
2022-08-20T01:44:48.377Z,99753.59
2022-08-20T01:47:28.393Z,99754.78
2022-08-20T01:50:07.317Z,99752.41
2022-08-20T01:52:47.335Z,99746.47
2022-08-20T01:55:21.222Z,99755.66
2022-08-20T01:57:57.201Z,99755.88
2022-08-20T02:00:32.745Z,99746.81
2022-08-20T02:03:07.926Z,99746.31
2022-08-20T02:05:41.553Z,99747.16
2022-08-20T02:08:15.234Z,99755.34
2022-08-20T02:10:49.205Z,99766.28
2022-08-20T02:13:24.796Z,99771.06
2022-08-20T02:15:58.446Z,99786.75
2022-08-20T02:18:32.096Z,99781.47
2022-08-20T02:21:06.067Z,99780.09
2022-08-20T02:23:39.668Z,99781.47
2022-08-20T02:26:13.510Z,99791.88
2022-08-20T02:28:50.899Z,99781.63
2022-08-20T02:31:25.221Z,99784.03
2022-08-20T02:34:23.090Z,99785.78
2022-08-20T02:36:57.405Z,99780.34
2022-08-20T02:39:31.080Z,99774.53
2022-08-20T02:42:05.441Z,99756.81
2022-08-20T02:44:40.827Z,99749.47
2022-08-20T02:47:14.346Z,99745.91
2022-08-20T02:49:47.905Z,99748.63
2022-08-20T02:52:21.791Z,99747.59
2022-08-20T02:54:55.263Z,99746.41
2022-08-20T02:57:30.363Z,99751.50
2022-08-20T03:00:06.674Z,99756.78
2022-08-20T03:02:40.284Z,99750.16
2022-08-20T03:05:15.970Z,99758.13
2022-08-20T03:07:53.678Z,99743.47
2022-08-20T03:10:34.759Z,99725.41
2022-08-20T03:13:12.430Z,99721.66
2022-08-20T03:15:49.897Z,99715.19
2022-08-20T03:18:25.097Z,99702.22
2022-08-20T03:20:59.016Z,99705.78
2022-08-20T03:23:32.819Z,99696.75
2022-08-20T03:26:10.666Z,99695.22
2022-08-20T03:28:47.224Z,99690.81
2022-08-20T03:31:27.308Z,99682.81
2022-08-20T03:34:00.955Z,99689.28
2022-08-20T03:36:34.569Z,99696.63
2022-08-20T03:39:11.832Z,99702.91
2022-08-20T03:41:45.471Z,99706.84
2022-08-20T03:44:19.098Z,99720.66
2022-08-20T03:46:54.560Z,99720.84
2022-08-20T03:49:28.108Z,99727.97
2022-08-20T03:52:02.755Z,99737.22
2022-08-20T03:54:36.335Z,99740.59
2022-08-20T03:57:14.651Z,99744.16
2022-08-20T03:59:51.944Z,99754.91
2022-08-20T04:02:34.576Z,99761.91
2022-08-20T04:05:08.975Z,99760.88
2022-08-20T04:07:43.211Z,99762.59
2022-08-20T04:10:16.756Z,99763.41
2022-08-20T04:12:53.130Z,99758.84
2022-08-20T04:15:26.894Z,99748.59
2022-08-20T04:18:03.096Z,99745.88
2022-08-20T04:20:38.067Z,99746.72
2022-08-20T04:23:12.181Z,99747.59
2022-08-20T04:25:46.978Z,99742.13
2022-08-20T04:28:25.001Z,99742.78
2022-08-20T04:31:00.431Z,99750.63
2022-08-20T04:33:35.633Z,99744.84
2022-08-20T04:36:09.302Z,99758.97
2022-08-20T04:38:49.657Z,99760.50
2022-08-20T04:41:25.291Z,99766.63
2022-08-20T04:43:59.708Z,99761.84
2022-08-20T04:46:33.325Z,99769.88
2022-08-20T04:49:08.962Z,99759.66
2022-08-20T04:51:42.734Z,99763.88
2022-08-20T04:54:16.323Z,99769.34
2022-08-20T04:56:49.976Z,99773.63
2022-08-20T04:59:23.661Z,99774.28
2022-08-20T05:01:57.360Z,99777.84
2022-08-20T05:04:32.390Z,99777.19
2022-08-20T05:07:06.169Z,99781.63
2022-08-20T05:09:43.775Z,99783.13
2022-08-20T05:12:18.288Z,99787.59
2022-08-20T05:14:51.992Z,99789.47
2022-08-20T05:17:25.690Z,99779.75
2022-08-20T05:20:00.972Z,99776.69
2022-08-20T05:22:34.487Z,99782.50
2022-08-20T05:25:12.056Z,99783.34
2022-08-20T05:27:47.823Z,99787.09
2022-08-20T05:30:21.640Z,99794.25
2022-08-20T05:32:56.080Z,99786.06
2022-08-20T05:35:31.490Z,99775.16
2022-08-20T05:38:05.167Z,99783.16
2022-08-20T05:40:40.003Z,99777.53
2022-08-20T05:43:13.659Z,99778.19
2022-08-20T05:45:56.495Z,99778.03
2022-08-20T05:48:30.414Z,99776.16
2022-08-20T05:51:05.644Z,99778.19
2022-08-20T05:53:39.153Z,99772.06
2022-08-20T05:56:12.848Z,99772.91
2022-08-20T05:58:46.550Z,99765.94
2022-08-20T06:01:20.212Z,99765.94
2022-08-20T06:04:11.373Z,99768.69
2022-08-20T06:06:47.381Z,99759.47
2022-08-20T06:09:30.936Z,99764.72
2022-08-20T06:12:09.112Z,99759.97
2022-08-20T06:14:42.709Z,99759.63
2022-08-20T06:17:18.712Z,99757.41
2022-08-20T06:19:56.444Z,99753.31
2022-08-20T06:22:31.716Z,99754.31
2022-08-20T06:25:06.774Z,99750.53
2022-08-20T06:27:41.308Z,99752.84
2022-08-20T06:30:21.812Z,99749.06
2022-08-20T06:32:56.539Z,99742.84
2022-08-20T06:35:30.173Z,99743.09
2022-08-20T06:38:10.751Z,99736.72
2022-08-20T06:40:44.318Z,99748.03
2022-08-20T06:43:18.016Z,99739.13
2022-08-20T06:45:57.833Z,99736.88
2022-08-20T06:48:31.374Z,99737.56
2022-08-20T06:51:06.723Z,99738.34
2022-08-20T06:53:41.871Z,99740.97
2022-08-20T06:56:15.537Z,99742.34
2022-08-20T06:58:49.698Z,99745.53
2022-08-20T07:01:23.451Z,99744.66
2022-08-20T07:03:59.850Z,99742.22
2022-08-20T07:06:33.449Z,99728.19
2022-08-20T07:09:08.454Z,99733.53
2022-08-20T07:11:42.373Z,99731.06
2022-08-20T07:14:16.290Z,99730.66
2022-08-20T07:16:50.697Z,99729.78
2022-08-20T07:19:24.597Z,99732.53
2022-08-20T07:21:58.185Z,99733.22
2022-08-20T07:24:34.969Z,99732.19
2022-08-20T07:27:11.392Z,99737.16
2022-08-20T07:30:02.426Z,99739.19
2022-08-20T07:32:37.144Z,99746.19
2022-08-20T07:35:17.144Z,99751.53
2022-08-20T07:37:54.651Z,99749.91
2022-08-20T07:40:33.317Z,99740.66
2022-08-20T07:43:06.989Z,99746.19
2022-08-20T07:45:48.076Z,99742.69
2022-08-20T07:48:32.279Z,99742.81
2022-08-20T07:51:07.454Z,99738.00
2022-08-20T07:53:42.203Z,99741.25
2022-08-20T07:56:20.218Z,99738.13
2022-08-20T07:58:57.047Z,99741.97
2022-08-20T08:01:33.128Z,99744.16
2022-08-20T08:04:06.962Z,99747.56
2022-08-20T08:06:40.762Z,99741.41
2022-08-20T08:09:16.008Z,99742.09
2022-08-20T08:11:51.933Z,99742.66
2022-08-20T08:14:29.592Z,99753.16
2022-08-20T08:17:06.040Z,99751.84
2022-08-20T08:19:43.945Z,99753.28
2022-08-20T08:22:19.961Z,99757.50
2022-08-20T08:24:57.145Z,99764.13
2022-08-20T08:27:34.321Z,99758.88
2022-08-20T08:30:10.295Z,99762.53
2022-08-20T08:33:04.096Z,99761.84
2022-08-20T08:35:39.231Z,99768.06
2022-08-20T08:38:17.471Z,99768.63
2022-08-20T08:41:00.289Z,99764.84
2022-08-20T08:43:35.357Z,99766.22
2022-08-20T08:46:12.926Z,99769.88
2022-08-20T08:48:49.487Z,99774.41
2022-08-20T08:51:29.600Z,99775.91
2022-08-20T08:54:07.153Z,99777.44
2022-08-20T08:56:41.643Z,99773.63
2022-08-20T08:59:16.723Z,99776.59
2022-08-20T09:01:56.950Z,99785.09
2022-08-20T09:04:33.824Z,99787.41
2022-08-20T09:07:15.536Z,99791.25
2022-08-20T09:09:49.096Z,99782.75
2022-08-20T09:12:27.992Z,99776.66
2022-08-20T09:15:02.950Z,99777.22
2022-08-20T09:17:36.473Z,99782.44
2022-08-20T09:20:11.619Z,99774.31
2022-08-20T09:22:45.335Z,99768.94
2022-08-20T09:25:19.970Z,99774.94
2022-08-20T09:27:53.811Z,99766.91
2022-08-20T09:30:29.854Z,99772.28
2022-08-20T09:33:07.559Z,99771.69
2022-08-20T09:35:41.611Z,99772.41
2022-08-20T09:38:15.214Z,99767.00
2022-08-20T09:40:48.925Z,99764.25
2022-08-20T09:43:22.679Z,99770.25
2022-08-20T09:45:57.691Z,99773.16
2022-08-20T09:48:32.251Z,99767.81
2022-08-20T09:51:06.464Z,99766.47
2022-08-20T09:53:40.173Z,99768.72
2022-08-20T09:56:13.928Z,99769.19
2022-08-20T09:58:51.204Z,99766.72
2022-08-20T10:01:26.252Z,99779.41
2022-08-20T10:03:59.926Z,99787.50
2022-08-20T10:06:37.694Z,99779.72
2022-08-20T10:09:11.490Z,99783.34
2022-08-20T10:11:45.108Z,99779.19
2022-08-20T10:14:18.739Z,99778.28
2022-08-20T10:16:59.870Z,99768.97
2022-08-20T10:19:34.171Z,99780.72
2022-08-20T10:22:07.825Z,99772.34
2022-08-20T10:24:41.516Z,99777.91
2022-08-20T10:27:15.135Z,99772.34
2022-08-20T10:29:48.878Z,99780.06
2022-08-20T10:32:23.962Z,99764.31
2022-08-20T10:34:57.556Z,99764.50
2022-08-20T10:37:31.274Z,99773.69
2022-08-20T10:40:06.399Z,99758.28
2022-08-20T10:42:42.631Z,99749.66
2022-08-20T10:45:17.509Z,99746.72
2022-08-20T10:47:52.653Z,99749.38
2022-08-20T10:50:30.231Z,99742.72
2022-08-20T10:53:04.521Z,99743.38
2022-08-20T10:55:38.217Z,99744.19
2022-08-20T10:58:13.397Z,99736.66
2022-08-20T11:00:47.526Z,99744.34
2022-08-20T11:03:22.778Z,99734.34
2022-08-20T11:05:56.302Z,99733.44
2022-08-20T11:08:34.088Z,99725.50
2022-08-20T11:11:09.509Z,99731.03
2022-08-20T11:13:43.058Z,99734.88
2022-08-20T11:16:16.662Z,99734.78
2022-08-20T11:18:51.755Z,99729.66
2022-08-20T11:21:25.272Z,99724.31
2022-08-20T11:24:02.701Z,99726.94
2022-08-20T11:26:36.764Z,99714.25
2022-08-20T11:29:10.420Z,99714.88
2022-08-20T11:31:44.114Z,99718.22
2022-08-20T11:34:19.344Z,99713.41
2022-08-20T11:36:54.210Z,99719.13
2022-08-20T11:39:28.172Z,99715.47
2022-08-20T11:42:02.037Z,99724.78
2022-08-20T11:44:35.837Z,99711.38
2022-08-20T11:47:10.140Z,99707.41
2022-08-20T11:49:45.398Z,99705.72
2022-08-20T11:52:19.029Z,99709.00
2022-08-20T11:54:54.969Z,99692.19
2022-08-20T11:57:30.893Z,99693.47
2022-08-20T12:00:09.922Z,99695.81
2022-08-20T12:02:44.057Z,99692.25
2022-08-20T12:05:20.127Z,99692.38
2022-08-20T12:07:53.756Z,99685.72
2022-08-20T12:10:28.311Z,99688.88
2022-08-20T12:13:03.435Z,99691.00
2022-08-20T12:15:38.918Z,99685.56
2022-08-20T12:18:12.623Z,99680.41
2022-08-20T12:20:47.695Z,99686.22
2022-08-20T12:23:24.435Z,99680.72
2022-08-20T12:25:59.195Z,99679.09
2022-08-20T12:28:33.364Z,99679.94
2022-08-20T12:31:07.234Z,99678.50
2022-08-20T12:33:40.799Z,99670.38
2022-08-20T12:36:15.795Z,99669.22
2022-08-20T12:38:49.324Z,99676.47
2022-08-20T12:41:22.946Z,99671.41
2022-08-20T12:43:56.437Z,99664.72
2022-08-20T12:46:30.073Z,99662.75
2022-08-20T12:49:03.642Z,99664.91
2022-08-20T12:51:38.626Z,99654.75
2022-08-20T12:54:12.155Z,99655.69
2022-08-20T12:56:46.331Z,99642.19
2022-08-20T12:59:23.016Z,99648.06
2022-08-20T13:01:59.355Z,99647.22
2022-08-20T13:04:48.193Z,99644.25
2022-08-20T13:07:23.222Z,99649.81
2022-08-20T13:09:57.245Z,99640.09
2022-08-20T13:12:31.259Z,99637.31
2022-08-20T13:15:05.243Z,99643.28
2022-08-20T13:17:39.699Z,99643.53
2022-08-20T13:20:16.313Z,99632.78
2022-08-20T13:22:51.244Z,99629.25
2022-08-20T13:25:25.748Z,99635.16
2022-08-20T13:28:05.128Z,99632.63
2022-08-20T13:30:41.086Z,99635.31
2022-08-20T13:33:14.853Z,99634.53
2022-08-20T13:35:48.478Z,99634.22
2022-08-20T13:38:24.405Z,99634.22
2022-08-20T13:40:58.731Z,99640.19
2022-08-20T13:43:32.355Z,99634.94
2022-08-20T13:46:06.679Z,99639.78
2022-08-20T13:48:40.316Z,99634.16
2022-08-20T13:51:13.878Z,99634.88
2022-08-20T13:53:54.535Z,99622.72
2022-08-20T13:56:28.112Z,99631.53
2022-08-20T13:59:01.758Z,99632.59
2022-08-20T14:01:35.478Z,99629.81
2022-08-20T14:04:09.161Z,99632.84
2022-08-20T14:06:42.748Z,99639.44
2022-08-20T14:09:17.806Z,99644.63
2022-08-20T14:11:51.437Z,99638.13
2022-08-20T14:14:25.063Z,99637.97
2022-08-20T14:16:58.718Z,99646.63
2022-08-20T14:19:32.295Z,99650.44
2022-08-20T14:22:06.269Z,99660.66
2022-08-20T14:24:41.323Z,99659.16
2022-08-20T14:27:16.777Z,99662.34
2022-08-20T14:29:51.845Z,99657.84
2022-08-20T14:32:25.513Z,99665.44
2022-08-20T14:34:59.509Z,99658.41
2022-08-20T14:37:35.080Z,99670.22
2022-08-20T14:40:13.244Z,99673.75
2022-08-20T14:42:51.607Z,99667.28
2022-08-20T14:45:25.721Z,99680.63
2022-08-20T14:47:59.902Z,99666.91
2022-08-20T14:50:36.239Z,99669.59
2022-08-20T14:53:09.875Z,99670.56
2022-08-20T14:55:44.892Z,99665.78
2022-08-20T14:58:18.629Z,99669.03
2022-08-20T15:00:52.355Z,99671.38
2022-08-20T15:03:30.640Z,99666.50
2022-08-20T15:06:04.374Z,99672.47
2022-08-20T15:08:40.580Z,99672.06
2022-08-20T15:11:15.720Z,99668.91
2022-08-20T15:13:49.357Z,99682.94
2022-08-20T15:16:22.873Z,99684.63
2022-08-20T15:18:59.217Z,99697.13
2022-08-20T15:21:45.044Z,99690.94
2022-08-20T15:24:19.742Z,99684.97
2022-08-20T15:26:54.942Z,99688.13
2022-08-20T15:29:28.650Z,99696.41
2022-08-20T15:32:02.241Z,99688.34
2022-08-20T15:34:36.201Z,99693.47
2022-08-20T15:37:11.098Z,99689.66
2022-08-20T15:39:46.418Z,99686.66
2022-08-20T15:42:22.795Z,99681.38
2022-08-20T15:44:56.326Z,99692.41
2022-08-20T15:47:32.936Z,99691.16
2022-08-20T15:50:14.227Z,99694.34
2022-08-20T15:52:47.969Z,99697.78
2022-08-20T15:55:22.447Z,99696.31
2022-08-20T15:58:01.446Z,99690.84
2022-08-20T16:00:43.182Z,99692.78
2022-08-20T16:03:35.435Z,99686.88
2022-08-20T16:06:15.454Z,99687.75
2022-08-20T16:09:03.896Z,99684.63
2022-08-20T16:11:47.856Z,99683.78
2022-08-20T16:14:26.834Z,99682.97
2022-08-20T16:17:07.633Z,99682.53
2022-08-20T16:19:52.503Z,99687.63
2022-08-20T16:22:30.815Z,99684.91
2022-08-20T16:25:05.005Z,99686.41
2022-08-20T16:27:49.270Z,99681.34
2022-08-20T16:30:35.595Z,99680.09
2022-08-20T16:33:12.313Z,99675.25
2022-08-20T16:35:52.346Z,99672.06
2022-08-20T16:38:47.817Z,99674.88
2022-08-20T16:41:29.363Z,99678.47
2022-08-20T16:44:08.084Z,99674.44
2022-08-20T16:46:50.209Z,99672.31
2022-08-20T16:49:27.504Z,99675.09
2022-08-20T16:52:01.314Z,99676.78
2022-08-20T16:54:34.993Z,99673.84
2022-08-20T16:57:08.697Z,99675.78
2022-08-20T17:00:10.119Z,99686.13
2022-08-20T17:02:54.591Z,99692.28
2022-08-20T17:05:30.829Z,99691.66
2022-08-20T17:08:07.224Z,99689.75
2022-08-20T17:10:56.217Z,99695.88
2022-08-20T17:13:32.127Z,99701.16
2022-08-20T17:16:07.981Z,99698.59
2022-08-20T17:18:45.101Z,99705.38
2022-08-20T17:21:23.570Z,99716.59
2022-08-20T17:24:00.475Z,99708.28
2022-08-20T17:26:38.451Z,99710.19
2022-08-20T17:29:16.586Z,99707.03
2022-08-20T17:31:52.537Z,99705.28
2022-08-20T17:34:29.902Z,99708.22
2022-08-20T17:37:09.223Z,99709.44
2022-08-20T17:39:48.118Z,99716.59
2022-08-20T17:42:25.617Z,99709.16
2022-08-20T17:45:06.951Z,99709.16
2022-08-20T17:47:41.457Z,99703.84
2022-08-20T17:50:21.207Z,99702.97
2022-08-20T17:52:58.357Z,99690.88
2022-08-20T17:55:34.989Z,99687.88
2022-08-20T17:58:13.634Z,99689.53
2022-08-20T18:00:47.433Z,99693.28
2022-08-20T18:03:23.648Z,99694.94
2022-08-20T18:06:03.945Z,99689.44
2022-08-20T18:08:43.661Z,99696.56
2022-08-20T18:11:25.242Z,99700.09
2022-08-20T18:14:18.371Z,99696.91
2022-08-20T18:17:06.317Z,99699.41
2022-08-20T18:20:04.301Z,99701.69
2022-08-20T18:22:47.634Z,99701.66
2022-08-20T18:25:33.661Z,99706.03
2022-08-20T18:28:16.076Z,99719.50
2022-08-20T18:30:53.119Z,99718.19
2022-08-20T18:33:33.581Z,99729.34
2022-08-20T18:36:12.358Z,99733.31
2022-08-20T18:39:00.259Z,99729.53
2022-08-20T18:41:36.196Z,99726.75
2022-08-20T18:44:14.264Z,99726.09
2022-08-20T18:46:56.418Z,99720.81
2022-08-20T18:49:32.471Z,99724.53
2022-08-20T18:52:15.159Z,99725.75
2022-08-20T18:54:54.939Z,99725.50
2022-08-20T18:57:40.652Z,99725.25
2022-08-20T19:00:21.857Z,99726.88
2022-08-20T19:02:58.714Z,99723.50
2022-08-20T19:05:44.257Z,99727.25
2022-08-20T19:08:21.467Z,99724.91
2022-08-20T19:11:06.166Z,99724.06
2022-08-20T19:14:05.135Z,99715.84
2022-08-20T19:16:42.139Z,99703.72
2022-08-20T19:19:18.179Z,99703.06
2022-08-20T19:21:53.236Z,99704.09
2022-08-20T19:24:33.174Z,99701.59
2022-08-20T19:27:10.362Z,99706.19
2022-08-20T19:29:49.527Z,99702.63
2022-08-20T19:32:28.396Z,99699.03
2022-08-20T19:35:07.107Z,99700.06
2022-08-20T19:37:51.693Z,99700.06
2022-08-20T19:40:28.476Z,99695.81
2022-08-20T19:43:07.352Z,99695.81
2022-08-20T19:45:45.460Z,99699.81
2022-08-20T19:48:42.946Z,99703.19
2022-08-20T19:51:27.141Z,99690.72
2022-08-20T19:54:01.860Z,99691.78
2022-08-20T19:56:42.417Z,99685.44
2022-08-20T19:59:22.919Z,99681.22
2022-08-20T20:02:00.496Z,99689.81
2022-08-20T20:04:41.171Z,99683.69
2022-08-20T20:07:41.141Z,99685.56
2022-08-20T20:10:29.436Z,99687.84
2022-08-20T20:13:10.824Z,99689.94
2022-08-20T20:15:46.253Z,99689.66
2022-08-20T20:18:19.841Z,99694.28
2022-08-20T20:20:58.213Z,99698.28
2022-08-20T20:23:38.724Z,99707.53
2022-08-20T20:26:21.315Z,99705.63
2022-08-20T20:29:02.308Z,99712.16
2022-08-20T20:31:49.696Z,99705.63
2022-08-20T20:34:28.204Z,99710.00
2022-08-20T20:37:06.617Z,99713.31
2022-08-20T20:39:42.732Z,99712.44
2022-08-20T20:42:29.732Z,99717.72
2022-08-20T20:45:04.142Z,99715.38
2022-08-20T20:47:39.208Z,99718.53
2022-08-20T20:50:13.694Z,99728.41
2022-08-20T20:52:51.440Z,99724.66
2022-08-20T20:55:27.842Z,99727.56
2022-08-20T20:58:02.547Z,99733.25
2022-08-20T21:00:36.574Z,99740.63
2022-08-20T21:03:11.697Z,99738.91
2022-08-20T21:05:45.353Z,99732.78
2022-08-20T21:08:19.953Z,99736.75
2022-08-20T21:10:54.977Z,99735.91
2022-08-20T21:13:28.614Z,99725.13
2022-08-20T21:16:02.406Z,99730.81
2022-08-20T21:18:38.176Z,99730.13
2022-08-20T21:21:12.215Z,99730.31
2022-08-20T21:23:45.816Z,99729.25
2022-08-20T21:26:19.659Z,99727.75
2022-08-20T21:28:53.344Z,99731.06
2022-08-20T21:31:33.064Z,99725.09
2022-08-20T21:34:08.207Z,99722.72
2022-08-20T21:36:41.942Z,99728.63
2022-08-20T21:39:15.721Z,99722.66
2022-08-20T21:41:49.705Z,99724.91
2022-08-20T21:44:25.533Z,99728.03
2022-08-20T21:47:00.271Z,99729.47
2022-08-20T21:49:35.741Z,99736.16
2022-08-20T21:52:09.434Z,99746.44
2022-08-20T21:54:43.218Z,99744.72
2022-08-20T21:57:21.767Z,99744.53
2022-08-20T21:59:56.221Z,99764.53
2022-08-20T22:02:32.418Z,99767.66
2022-08-20T22:05:09.448Z,99772.47
2022-08-20T22:07:46.254Z,99775.09
2022-08-20T22:10:25.903Z,99778.47
2022-08-20T22:12:59.422Z,99781.44
2022-08-20T22:15:33.296Z,99778.56
2022-08-20T22:18:07.229Z,99778.06
2022-08-20T22:20:42.861Z,99776.56
2022-08-20T22:23:18.799Z,99786.16
2022-08-20T22:25:57.111Z,99782.09
2022-08-20T22:28:30.903Z,99782.47
2022-08-20T22:31:05.684Z,99782.84
2022-08-20T22:33:42.363Z,99780.84
2022-08-20T22:36:17.610Z,99792.78
2022-08-20T22:38:54.609Z,99779.00
2022-08-20T22:41:31.647Z,99767.59
2022-08-20T22:44:07.710Z,99770.31
2022-08-20T22:46:48.230Z,99771.34
2022-08-20T22:49:27.408Z,99765.03
2022-08-20T22:52:09.998Z,99759.38
2022-08-20T22:54:47.795Z,99767.59
2022-08-20T22:57:22.381Z,99758.69
2022-08-20T22:59:56.388Z,99768.31
2022-08-20T23:02:29.916Z,99772.41
2022-08-20T23:05:03.694Z,99769.38
2022-08-20T23:07:41.759Z,99774.38
2022-08-20T23:10:15.804Z,99764.63
2022-08-20T23:12:49.555Z,99757.81
2022-08-20T23:15:23.045Z,99766.53
2022-08-20T23:18:02.179Z,99762.47
2022-08-20T23:20:36.238Z,99764.69
2022-08-20T23:23:12.327Z,99761.28
2022-08-20T23:25:46.596Z,99763.16
2022-08-20T23:28:22.521Z,99760.44
2022-08-20T23:30:56.394Z,99765.91
2022-08-20T23:33:31.529Z,99754.47
2022-08-20T23:36:12.892Z,99760.13
2022-08-20T23:38:48.463Z,99751.63
2022-08-20T23:41:24.877Z,99751.97
2022-08-20T23:44:01.138Z,99754.22
2022-08-20T23:46:40.603Z,99748.06
2022-08-20T23:49:15.781Z,99747.75
2022-08-20T23:51:52.309Z,99743.47
2022-08-20T23:54:27.746Z,99742.81
2022-08-20T23:57:01.362Z,99745.25
2022-08-20T23:59:43.976Z,99742.84
